Time;durP1;ratioP1;P1;durP2;ratioP2;P2;SDS_P1;SDS_P2;PMS_P1;PMS_P2;Temp;Humidity;BMP_temperature;BMP_pressure;BME280_temperature;BME280_humidity;BME280_pressure;Samples;Min_cycle;Max_cycle;Signal;HPM_P1;HPM_P2
2022/05/05 00:01:11;;;;;;;;;35.00;31.75;;;;;;;;5079759;27;45460;-72
2022/05/05 00:03:38;;;;;;;;;42.00;35.50;;;;;;;;5079945;27;45277;-72
2022/05/05 00:06:03;;;;;;;;;32.50;30.75;;;;;;;;5078637;28;45433;-72
2022/05/05 00:08:30;;;;;;;;;30.25;27.25;;;;;;;;5079492;27;45386;-72
2022/05/05 00:16:23;;;;;;;;;32.75;28.75;;;;;;;;5080109;28;45419;-73
2022/05/05 00:18:49;;;;;;;;;31.00;29.50;;;;;;;;5079336;27;45521;-73
2022/05/05 00:21:15;;;;;;;;;31.75;28.75;;;;;;;;5079095;27;45417;-72
2022/05/05 00:23:40;;;;;;;;;33.25;31.00;;;;;;;;5078714;27;45336;-72
2022/05/05 00:26:05;;;;;;;;;58.75;48.00;;;;;;;;5078932;27;46374;-73
2022/05/05 00:28:31;;;;;;;;;32.75;30.00;;;;;;;;5075779;28;45428;-72
2022/05/05 00:30:56;;;;;;;;;33.50;31.25;;;;;;;;5078917;27;45485;-73
2022/05/05 00:33:22;;;;;;;;;37.00;32.50;;;;;;;;5078390;28;45479;-73
2022/05/05 00:35:47;;;;;;;;;40.50;33.25;;;;;;;;5078467;27;45489;-72
2022/05/05 00:38:12;;;;;;;;;47.00;35.75;;;;;;;;5078386;27;46075;-71
2022/05/05 00:40:41;;;;;;;;;37.00;31.75;;;;;;;;5078286;27;45563;-72
2022/05/05 00:43:06;;;;;;;;;41.75;36.00;;;;;;;;5078521;28;45276;-73
2022/05/05 00:45:31;;;;;;;;;44.00;35.75;;;;;;;;5078633;27;45432;-72
2022/05/05 00:48:04;;;;;;;;;42.00;34.50;;;;;;;;5078448;27;45488;-72
2022/05/05 00:50:31;;;;;;;;;39.00;35.00;;;;;;;;5078467;28;45491;-72
2022/05/05 00:52:56;;;;;;;;;40.75;35.00;;;;;;;;5078412;27;45168;-71
2022/05/05 00:55:22;;;;;;;;;48.00;37.00;;;;;;;;5078280;27;45608;-71
2022/05/05 00:57:47;;;;;;;;;45.75;38.50;;;;;;;;5077783;27;45397;-71
2022/05/05 01:00:13;;;;;;;;;45.75;38.00;;;;;;;;5077982;27;45425;-71
2022/05/05 01:02:38;;;;;;;;;36.50;34.00;;;;;;;;5078160;28;45355;-72
2022/05/05 01:05:04;;;;;;;;;38.75;33.50;;;;;;;;5078038;27;45371;-73
2022/05/05 01:07:29;;;;;;;;;40.25;34.75;;;;;;;;5078004;28;45518;-72
2022/05/05 01:09:54;;;;;;;;;46.00;35.50;;;;;;;;5077840;27;45380;-72
2022/05/05 01:12:22;;;;;;;;;35.00;31.00;;;;;;;;5078009;27;45477;-72
2022/05/05 01:14:48;;;;;;;;;36.75;32.00;;;;;;;;5073930;27;45525;-72
2022/05/05 01:17:13;;;;;;;;;36.50;32.00;;;;;;;;5067438;28;46182;-72
2022/05/05 01:22:41;;;;;;;;;37.50;33.00;;;;;;;;5058624;28;45500;-73
2022/05/05 01:30:34;;;;;;;;;35.75;27.00;;;;;;;;5058154;28;45431;-72
2022/05/05 01:32:59;;;;;;;;;30.25;27.00;;;;;;;;5058521;28;46054;-72
2022/05/05 01:35:25;;;;;;;;;32.75;27.50;;;;;;;;5058292;28;45401;-72
2022/05/05 01:37:50;;;;;;;;;30.00;28.25;;;;;;;;5057983;28;46379;-73
2022/05/05 01:40:16;;;;;;;;;43.25;37.00;;;;;;;;5058046;28;45458;-72
2022/05/05 01:42:42;;;;;;;;;39.50;35.00;;;;;;;;5058236;28;45342;-73
2022/05/05 01:45:07;;;;;;;;;29.00;27.75;;;;;;;;5058296;28;45426;-72
2022/05/05 01:47:33;;;;;;;;;30.00;28.00;;;;;;;;5057826;28;47446;-73
2022/05/05 01:49:59;;;;;;;;;30.50;28.00;;;;;;;;5058176;28;45217;-72
2022/05/05 01:52:24;;;;;;;;;33.50;28.75;;;;;;;;5058102;28;45298;-72
2022/05/05 01:54:50;;;;;;;;;30.25;29.00;;;;;;;;5058143;28;45207;-72
2022/05/05 01:57:15;;;;;;;;;35.25;30.25;;;;;;;;5057758;28;45214;-72
2022/05/05 01:59:40;;;;;;;;;31.75;30.25;;;;;;;;5057758;28;45447;-72
2022/05/05 02:02:06;;;;;;;;;34.75;32.00;;;;;;;;5057965;28;45271;-72
2022/05/05 02:04:31;;;;;;;;;45.00;38.50;;;;;;;;5058305;28;45487;-72
2022/05/05 02:06:56;;;;;;;;;35.00;32.00;;;;;;;;5057669;28;46037;-73
2022/05/05 02:09:22;;;;;;;;;34.75;30.75;;;;;;;;5057711;28;45313;-73
2022/05/05 02:11:47;;;;;;;;;30.75;28.25;;;;;;;;5057810;28;45519;-73
2022/05/05 02:14:12;;;;;;;;;30.50;27.00;;;;;;;;5057881;28;45220;-72
2022/05/05 02:16:38;;;;;;;;;36.25;32.75;;;;;;;;5056642;28;45908;-73
2022/05/05 02:19:03;;;;;;;;;28.50;27.75;;;;;;;;5057976;28;45503;-72
2022/05/05 02:21:28;;;;;;;;;31.00;28.50;;;;;;;;5057714;28;45342;-73
2022/05/05 02:23:54;;;;;;;;;35.50;32.00;;;;;;;;5057821;28;45478;-72
2022/05/05 02:26:19;;;;;;;;;37.75;32.75;;;;;;;;5057359;28;46166;-73
2022/05/05 02:28:44;;;;;;;;;27.50;26.25;;;;;;;;5057313;28;45415;-73
2022/05/05 02:31:10;;;;;;;;;30.50;27.75;;;;;;;;5057514;28;45483;-72
2022/05/05 02:33:35;;;;;;;;;34.00;28.25;;;;;;;;5057828;28;45473;-72
2022/05/05 02:38:47;;;;;;;;;36.75;32.00;;;;;;;;5057656;28;45788;-72
2022/05/05 02:41:13;;;;;;;;;34.25;29.50;;;;;;;;5057119;28;45483;-73
2022/05/05 02:43:38;;;;;;;;;31.75;29.25;;;;;;;;5057479;28;45377;-73
2022/05/05 02:46:04;;;;;;;;;28.50;26.75;;;;;;;;5057515;28;46090;-71
2022/05/05 02:48:29;;;;;;;;;30.00;28.25;;;;;;;;5057118;28;45328;-72
2022/05/05 02:50:54;;;;;;;;;31.50;29.25;;;;;;;;5057292;28;45480;-73
2022/05/05 02:56:04;;;;;;;;;29.50;26.00;;;;;;;;5057215;28;45258;-72
2022/05/05 02:58:29;;;;;;;;;29.25;27.00;;;;;;;;5056958;28;45509;-72
2022/05/05 03:00:55;;;;;;;;;30.00;27.75;;;;;;;;5057253;28;45483;-72
2022/05/05 03:03:20;;;;;;;;;28.00;27.00;;;;;;;;5057270;28;45533;-72
2022/05/05 03:05:46;;;;;;;;;30.50;28.00;;;;;;;;5056740;28;46015;-72
2022/05/05 03:08:11;;;;;;;;;30.75;27.25;;;;;;;;5056839;28;45243;-72
2022/05/05 03:10:36;;;;;;;;;30.75;28.00;;;;;;;;5057388;28;45199;-72
2022/05/05 03:13:02;;;;;;;;;34.50;31.25;;;;;;;;5057315;28;45214;-72
2022/05/05 03:15:27;;;;;;;;;31.75;29.25;;;;;;;;5056849;28;45347;-72
2022/05/05 03:17:52;;;;;;;;;33.75;27.00;;;;;;;;5056871;28;45156;-72
2022/05/05 03:20:18;;;;;;;;;32.25;28.25;;;;;;;;5057093;28;45508;-72
2022/05/05 03:22:43;;;;;;;;;31.75;29.75;;;;;;;;5057082;28;45342;-73
2022/05/05 03:25:09;;;;;;;;;33.00;30.50;;;;;;;;5056562;28;45976;-72
2022/05/05 03:27:37;;;;;;;;;29.25;25.00;;;;;;;;5055706;28;45236;-73
2022/05/05 03:30:03;;;;;;;;;24.00;23.25;;;;;;;;5060473;28;45325;-72
2022/05/05 03:32:28;;;;;;;;;48.25;39.00;;;;;;;;5060833;28;45922;-73
2022/05/05 03:34:54;;;;;;;;;27.00;26.50;;;;;;;;5059916;28;45379;-72
2022/05/05 03:37:19;;;;;;;;;26.50;24.75;;;;;;;;5060009;28;45306;-72
2022/05/05 03:39:45;;;;;;;;;28.50;26.75;;;;;;;;5059993;28;45395;-72
2022/05/05 03:42:10;;;;;;;;;36.75;33.75;;;;;;;;5060174;28;45483;-72
2022/05/05 03:44:36;;;;;;;;;33.25;27.25;;;;;;;;5060254;28;45394;-72
2022/05/05 03:47:01;;;;;;;;;28.75;27.50;;;;;;;;5060004;28;45346;-72
2022/05/05 03:49:26;;;;;;;;;34.50;29.00;;;;;;;;5060153;28;45652;-72
2022/05/05 03:51:52;;;;;;;;;38.50;33.25;;;;;;;;5060219;28;45365;-72
2022/05/05 03:54:17;;;;;;;;;25.00;23.25;;;;;;;;5059674;28;45447;-73
2022/05/05 03:56:44;;;;;;;;;28.25;26.50;;;;;;;;5059670;28;45575;-72
2022/05/05 03:59:09;;;;;;;;;31.25;28.00;;;;;;;;5058752;28;45526;-72
2022/05/05 04:01:34;;;;;;;;;27.50;26.00;;;;;;;;5059766;28;45495;-73
2022/05/05 04:04:00;;;;;;;;;25.50;24.00;;;;;;;;5059821;28;45406;-73
2022/05/05 04:06:25;;;;;;;;;28.00;24.25;;;;;;;;5059762;28;45468;-73
2022/05/05 04:08:50;;;;;;;;;31.50;29.75;;;;;;;;5059662;28;45356;-72
2022/05/05 04:11:16;;;;;;;;;29.00;28.00;;;;;;;;5059729;28;45370;-72
2022/05/05 04:13:41;;;;;;;;;28.50;25.25;;;;;;;;5059382;28;45858;-73
2022/05/05 04:16:07;;;;;;;;;28.00;24.25;;;;;;;;5059632;28;45492;-71
2022/05/05 04:18:33;;;;;;;;;27.50;26.75;;;;;;;;5059500;28;45297;-72
2022/05/05 04:20:58;;;;;;;;;24.50;23.75;;;;;;;;5059795;28;45347;-73
2022/05/05 04:23:24;;;;;;;;;30.00;26.50;;;;;;;;5058998;28;45363;-72
2022/05/05 04:25:49;;;;;;;;;28.50;26.25;;;;;;;;5059327;28;45499;-72
2022/05/05 04:28:15;;;;;;;;;28.00;27.50;;;;;;;;5059628;28;45748;-72
2022/05/05 04:30:41;;;;;;;;;25.00;25.00;;;;;;;;5059767;28;45190;-72
2022/05/05 04:33:09;;;;;;;;;27.50;24.75;;;;;;;;5058913;28;45422;-72
2022/05/05 04:35:35;;;;;;;;;27.75;25.50;;;;;;;;5058026;28;45403;-71
2022/05/05 04:38:01;;;;;;;;;25.25;23.75;;;;;;;;5059082;28;45435;-73
2022/05/05 04:40:26;;;;;;;;;27.25;25.75;;;;;;;;5058505;28;45495;-72
2022/05/05 04:42:52;;;;;;;;;29.00;27.25;;;;;;;;5058897;28;45555;-72
2022/05/05 04:45:17;;;;;;;;;29.25;26.75;;;;;;;;5059170;28;45476;-72
2022/05/05 04:47:43;;;;;;;;;27.25;25.75;;;;;;;;5059591;28;45421;-72
2022/05/05 04:50:08;;;;;;;;;29.50;28.25;;;;;;;;5059791;28;45580;-73
2022/05/05 04:52:33;;;;;;;;;28.50;27.75;;;;;;;;5058739;28;46526;-71
2022/05/05 04:54:59;;;;;;;;;29.75;26.25;;;;;;;;5058808;28;45491;-72
2022/05/05 04:57:25;;;;;;;;;30.50;29.25;;;;;;;;5058838;28;45486;-72
2022/05/05 04:59:50;;;;;;;;;23.50;21.25;;;;;;;;5058965;28;45164;-73
2022/05/05 05:02:16;;;;;;;;;33.00;30.75;;;;;;;;5058792;28;45428;-72
2022/05/05 05:04:41;;;;;;;;;25.00;23.75;;;;;;;;5059007;28;45468;-72
2022/05/05 05:07:07;;;;;;;;;25.50;24.75;;;;;;;;5058904;28;45282;-73
2022/05/05 05:09:32;;;;;;;;;30.25;27.75;;;;;;;;5057720;28;45474;-72
2022/05/05 05:11:57;;;;;;;;;26.75;23.00;;;;;;;;5058661;28;45871;-73
2022/05/05 05:14:23;;;;;;;;;22.50;21.00;;;;;;;;5058692;28;45271;-72
2022/05/05 05:16:48;;;;;;;;;19.75;17.75;;;;;;;;5058578;28;45474;-73
2022/05/05 05:19:13;;;;;;;;;26.25;24.50;;;;;;;;5059221;28;45222;-71
2022/05/05 05:21:39;;;;;;;;;19.00;18.25;;;;;;;;5058315;28;45329;-72
2022/05/05 05:24:04;;;;;;;;;23.50;20.25;;;;;;;;5058470;28;45168;-72
2022/05/05 05:26:30;;;;;;;;;24.00;23.00;;;;;;;;5058467;28;45452;-73
2022/05/05 05:28:55;;;;;;;;;27.50;25.75;;;;;;;;5059023;28;45526;-71
2022/05/05 05:31:21;;;;;;;;;24.25;22.75;;;;;;;;5058534;28;45415;-72
2022/05/05 05:33:47;;;;;;;;;27.75;24.75;;;;;;;;5058132;28;45545;-72
2022/05/05 05:36:12;;;;;;;;;24.25;23.00;;;;;;;;5058478;28;45332;-73
2022/05/05 05:38:38;;;;;;;;;21.50;21.00;;;;;;;;5058514;28;45395;-73
2022/05/05 05:41:03;;;;;;;;;41.75;34.00;;;;;;;;5058057;28;45476;-72
2022/05/05 05:43:28;;;;;;;;;53.25;45.00;;;;;;;;5057993;28;45498;-73
2022/05/05 05:45:54;;;;;;;;;32.00;30.50;;;;;;;;5058143;28;45481;-72
2022/05/05 05:48:19;;;;;;;;;29.25;25.25;;;;;;;;5058037;28;45417;-71
2022/05/05 05:50:44;;;;;;;;;26.75;26.25;;;;;;;;5057985;28;45995;-73
2022/05/05 05:53:11;;;;;;;;;29.00;26.25;;;;;;;;5057312;28;45354;-73
2022/05/05 05:55:36;;;;;;;;;30.50;28.00;;;;;;;;5058371;28;45425;-72
2022/05/05 05:58:01;;;;;;;;;24.75;23.75;;;;;;;;5058007;28;45165;-73
2022/05/05 06:00:28;;;;;;;;;28.00;25.00;;;;;;;;5057977;28;45420;-72
2022/05/05 06:05:37;;;;;;;;;25.50;23.50;;;;;;;;5058012;28;45461;-73
2022/05/05 06:08:03;;;;;;;;;25.75;23.00;;;;;;;;5058178;28;45472;-72
2022/05/05 06:10:28;;;;;;;;;28.50;24.75;;;;;;;;5057577;28;45851;-72
2022/05/05 06:12:54;;;;;;;;;27.00;24.25;;;;;;;;5057622;28;45230;-72
2022/05/05 06:15:20;;;;;;;;;30.25;27.75;;;;;;;;5057673;28;45311;-72
2022/05/05 06:17:46;;;;;;;;;36.00;30.75;;;;;;;;5057962;28;45413;-73
2022/05/05 06:20:11;;;;;;;;;33.50;28.00;;;;;;;;5057480;28;46237;-73
2022/05/05 06:22:37;;;;;;;;;28.75;25.25;;;;;;;;5057539;28;45337;-72
2022/05/05 06:25:03;;;;;;;;;36.75;31.25;;;;;;;;5057622;28;45467;-73
2022/05/05 06:27:29;;;;;;;;;47.50;38.75;;;;;;;;5057778;28;45901;-72
2022/05/05 06:29:54;;;;;;;;;39.75;34.75;;;;;;;;5057151;28;45957;-71
2022/05/05 06:32:19;;;;;;;;;36.75;31.25;;;;;;;;5057236;28;45432;-73
2022/05/05 06:34:45;;;;;;;;;40.75;33.75;;;;;;;;5057670;28;45390;-73
2022/05/05 06:37:11;;;;;;;;;29.00;24.00;;;;;;;;5057559;28;45321;-73
2022/05/05 06:39:36;;;;;;;;;38.50;33.75;;;;;;;;5057074;28;45385;-73
2022/05/05 06:42:02;;;;;;;;;29.00;24.75;;;;;;;;5055917;28;45375;-72
2022/05/05 06:44:27;;;;;;;;;22.50;19.50;;;;;;;;5057431;28;45303;-73
2022/05/05 06:46:52;;;;;;;;;26.50;25.50;;;;;;;;5057570;28;45563;-71
2022/05/05 06:49:18;;;;;;;;;28.25;25.50;;;;;;;;5057281;28;45959;-71
2022/05/05 06:51:43;;;;;;;;;29.50;27.75;;;;;;;;5056956;28;45499;-73
2022/05/05 06:54:09;;;;;;;;;28.25;27.25;;;;;;;;5057343;28;45335;-73
2022/05/05 06:56:34;;;;;;;;;31.00;25.75;;;;;;;;5058428;28;45404;-72
2022/05/05 06:59:00;;;;;;;;;28.00;23.75;;;;;;;;5056976;28;45478;-71
2022/05/05 07:02:07;;;;;;;;;30.50;28.25;;;;;;;;5057118;28;45434;-74
2022/05/05 07:06:57;;;;;;;;;31.00;29.00;;;;;;;;5060815;28;45433;-73
2022/05/05 07:12:06;;;;;;;;;43.50;33.00;;;;;;;;5060520;28;45404;-73
2022/05/05 07:14:31;;;;;;;;;31.00;26.25;;;;;;;;5060604;28;45448;-72
2022/05/05 07:16:57;;;;;;;;;29.25;24.00;;;;;;;;5060623;28;45388;-74
2022/05/05 07:19:22;;;;;;;;;29.50;25.50;;;;;;;;5060411;28;45939;-71
2022/05/05 07:21:48;;;;;;;;;34.50;24.75;;;;;;;;5062417;28;45628;-73
2022/05/05 07:24:14;;;;;;;;;28.75;26.00;;;;;;;;5075242;28;45450;-72
2022/05/05 07:26:39;;;;;;;;;39.75;31.75;;;;;;;;5079013;27;45471;-74
2022/05/05 07:29:04;;;;;;;;;29.50;24.25;;;;;;;;5079689;28;45351;-73
2022/05/05 07:31:30;;;;;;;;;29.00;24.50;;;;;;;;5079334;28;45484;-72
2022/05/05 07:33:55;;;;;;;;;26.75;23.00;;;;;;;;5079471;28;45771;-72
2022/05/05 07:36:21;;;;;;;;;24.33;22.33;;;;;;;;5079783;27;45828;-71
2022/05/05 07:38:46;;;;;;;;;21.00;20.00;;;;;;;;5078407;28;46103;-73
2022/05/05 07:41:11;;;;;;;;;24.00;21.33;;;;;;;;5079614;28;45831;-71
2022/05/05 07:43:37;;;;;;;;;22.00;18.00;;;;;;;;5079251;28;45323;-72
2022/05/05 07:46:02;;;;;;;;;25.33;23.00;;;;;;;;5079322;28;45444;-71
2022/05/05 07:48:27;;;;;;;;;22.00;19.67;;;;;;;;5078881;28;46036;-71
2022/05/05 07:50:53;;;;;;;;;23.67;20.33;;;;;;;;5078380;28;45382;-71
2022/05/05 07:53:18;;;;;;;;;22.33;22.00;;;;;;;;5078984;27;45380;-71
2022/05/05 07:55:44;;;;;;;;;21.50;20.25;;;;;;;;5079315;27;45405;-71
2022/05/05 07:58:09;;;;;;;;;22.67;21.00;;;;;;;;5078684;28;45980;-72
2022/05/05 08:00:34;;;;;;;;;22.00;21.75;;;;;;;;5079218;28;45444;-70
2022/05/05 08:03:00;;;;;;;;;20.50;18.75;;;;;;;;5079180;28;45255;-72
2022/05/05 08:05:25;;;;;;;;;25.25;20.00;;;;;;;;5078441;28;45500;-71
2022/05/05 08:07:51;;;;;;;;;27.00;22.33;;;;;;;;5078663;27;46374;-72
2022/05/05 08:10:20;;;;;;;;;20.67;20.00;;;;;;;;5064190;27;45602;-71
2022/05/05 08:12:46;;;;;;;;;21.00;18.33;;;;;;;;5079658;28;45177;-69
2022/05/05 08:15:12;;;;;;;;;22.25;21.00;;;;;;;;5078842;27;45539;-71
2022/05/05 08:17:38;;;;;;;;;17.67;16.67;;;;;;;;5079076;27;46264;-68
2022/05/05 08:20:04;;;;;;;;;20.33;19.00;;;;;;;;5079139;27;45365;-69
2022/05/05 08:22:29;;;;;;;;;18.67;17.33;;;;;;;;5079276;28;45309;-72
2022/05/05 08:30:22;;;;;;;;;15.00;14.67;;;;;;;;5079533;28;45211;-73
2022/05/05 08:32:47;;;;;;;;;16.33;16.00;;;;;;;;5079104;28;45490;-73
2022/05/05 08:35:13;;;;;;;;;18.33;18.00;;;;;;;;5078366;28;45368;-71
2022/05/05 08:37:38;;;;;;;;;20.67;17.33;;;;;;;;5079007;28;46077;-75
2022/05/05 08:40:05;;;;;;;;;15.33;14.33;;;;;;;;5079253;28;45188;-76
2022/05/05 08:42:30;;;;;;;;;20.67;17.33;;;;;;;;5079532;28;45266;-83
2022/05/05 08:44:58;;;;;;;;;18.00;14.33;;;;;;;;5079521;28;45465;-73
2022/05/05 08:47:24;;;;;;;;;14.67;14.33;;;;;;;;5079173;28;45388;-74
2022/05/05 08:49:51;;;;;;;;;15.00;15.00;;;;;;;;5079389;28;45251;-74
2022/05/05 08:52:17;;;;;;;;;14.33;13.33;;;;;;;;5079290;28;45156;-87
2022/05/05 08:54:44;;;;;;;;;15.00;14.00;;;;;;;;5079700;27;45503;-85
2022/05/05 08:57:09;;;;;;;;;17.00;16.67;;;;;;;;5078731;28;46081;-78
2022/05/05 08:59:35;;;;;;;;;15.33;14.33;;;;;;;;5078269;28;45712;-82
2022/05/05 09:02:00;;;;;;;;;16.67;15.67;;;;;;;;5077382;27;45711;-72
2022/05/05 09:04:25;;;;;;;;;15.67;14.67;;;;;;;;5078055;27;45640;-72
2022/05/05 09:06:52;;;;;;;;;14.33;13.00;;;;;;;;5077351;27;45716;-82
2022/05/05 09:09:37;;;;;;;;;15.00;14.00;;;;;;;;5077645;27;45534;-72
2022/05/05 09:12:14;;;;;;;;;18.33;15.00;;;;;;;;5075985;28;46461;-72
2022/05/05 09:14:43;;;;;;;;;15.33;14.33;;;;;;;;5076128;27;45472;-72
2022/05/05 09:17:10;;;;;;;;;18.67;16.67;;;;;;;;5077293;27;45367;-71
2022/05/05 09:19:37;;;;;;;;;16.33;16.33;;;;;;;;5077157;27;45459;-81
2022/05/05 09:22:04;;;;;;;;;16.33;15.67;;;;;;;;5079093;27;45326;-83
2022/05/05 09:24:35;;;;;;;;;14.67;14.67;;;;;;;;5079787;27;45456;-84
2022/05/05 09:27:16;;;;;;;;;19.00;16.67;;;;;;;;5079303;27;46143;-84
2022/05/05 09:29:42;;;;;;;;;18.67;15.33;;;;;;;;5074259;28;45488;-72
2022/05/05 09:32:12;;;;;;;;;19.67;16.67;;;;;;;;5077440;27;45569;-72
2022/05/05 09:34:37;;;;;;;;;17.33;16.00;;;;;;;;5074932;28;45317;-72
2022/05/05 09:37:18;;;;;;;;;21.67;17.33;;;;;;;;5076831;27;45447;-74
2022/05/05 09:39:44;;;;;;;;;15.67;14.67;;;;;;;;5075989;28;45453;-71
2022/05/05 09:42:09;;;;;;;;;15.67;15.00;;;;;;;;5077293;27;45771;-71
2022/05/05 09:44:43;;;;;;;;;17.00;15.67;;;;;;;;5077860;27;45352;-87
2022/05/05 14:51:36;;;;;;;;;12.67;10.33;;;;;22.06;44.83;101137.22;5064984;27;45477;-74
2022/05/05 14:54:02;;;;;;;;;10.00;10.00;;;;;22.14;44.83;101142.47;5071637;27;45445;-74
2022/05/05 14:56:27;;;;;;;;;8.67;8.67;;;;;22.02;45.06;101149.69;5073611;27;45346;-74
2022/05/05 14:58:53;;;;;;;;;11.00;10.67;;;;;22.01;45.73;101142.56;5089480;27;45408;-77
2022/05/05 15:01:21;;;;;;;;;11.33;10.33;;;;;21.88;45.87;101145.34;5072924;27;45543;-74
2022/05/05 15:03:47;;;;;;;;;10.67;10.00;;;;;21.96;46.63;101152.34;5073295;28;45200;-74
2022/05/05 15:06:13;;;;;;;;;10.00;8.00;;;;;22.39;45.76;101154.72;5073019;27;45445;-77
2022/05/05 15:08:39;;;;;;;;;14.00;11.67;;;;;22.02;44.41;101100.88;5072313;28;45516;-74
2022/05/05 15:11:04;;;;;;;;;10.00;9.00;;;;;21.96;44.90;101152.34;5073040;27;45516;-74
2022/05/05 15:13:30;;;;;;;;;9.33;9.00;;;;;21.82;45.35;101159.56;5073021;28;45407;-77
2022/05/05 15:15:55;;;;;;;;;8.00;7.67;;;;;21.86;45.49;101163.97;5073218;28;45516;-74
2022/05/05 15:18:21;;;;;;;;;10.33;9.00;;;;;21.74;46.01;101178.22;5073668;27;45514;-77
2022/05/05 15:20:46;;;;;;;;;7.00;7.00;;;;;21.92;44.84;101155.06;5073097;28;45551;-77
2022/05/05 15:23:12;;;;;;;;;9.00;9.00;;;;;22.12;44.96;101170.88;5073472;28;45453;-74
2022/05/05 15:25:38;;;;;;;;;10.00;9.67;;;;;22.09;45.61;101169.13;5073588;28;45615;-76
2022/05/05 15:28:03;;;;;;;;;11.67;10.33;;;;;22.10;45.95;101170.88;5073310;27;45495;-74
2022/05/05 15:30:29;;;;;;;;;7.67;7.67;;;;;22.37;45.00;101172.47;5072737;28;45229;-76
2022/05/05 15:33:04;;;;;;;;;8.33;7.33;;;;;22.88;43.25;101173.75;5072865;27;45454;-77
2022/05/05 15:35:30;;;;;;;;;7.67;7.67;;;;;23.03;43.24;101169.16;5072732;28;45419;-76
2022/05/05 15:37:56;;;;;;;;;10.67;8.33;;;;;22.62;41.97;101166.91;5072618;27;45453;-75
2022/05/05 15:40:21;;;;;;;;;9.33;8.00;;;;;22.57;43.61;101160.75;5072109;27;45460;-75
2022/05/05 15:42:47;;;;;;;;;8.00;7.00;;;;;22.46;44.63;101167.97;5072964;27;45275;-75
2022/05/05 15:45:13;;;;;;;;;9.00;9.00;;;;;22.22;44.27;101175.22;5072955;28;45292;-75
2022/05/05 15:47:40;;;;;;;;;6.00;6.00;;;;;21.89;45.10;101173.72;5073538;27;45435;-75
2022/05/05 15:50:10;;;;;;;;;8.00;7.67;;;;;21.87;45.35;101164.88;5073208;27;45930;-75
2022/05/05 15:52:37;;;;;;;;;9.33;8.67;;;;;21.81;45.27;101174.63;5073326;27;45559;-75
2022/05/05 15:55:08;;;;;;;;;7.67;7.00;;;;;21.56;45.69;101178.34;5073171;28;45229;-75
2022/05/05 15:57:34;;;;;;;;;6.00;6.00;;;;;21.30;46.00;101178.44;5073212;27;45409;-75
2022/05/05 16:00:00;;;;;;;;;9.33;7.67;;;;;21.17;46.18;101172.25;5072611;27;46144;-75
2022/05/05 16:02:26;;;;;;;;;7.00;7.00;;;;;21.09;47.05;101176.72;5062117;28;45888;-75
2022/05/05 16:04:52;;;;;;;;;8.33;7.33;;;;;21.05;47.02;101179.41;5059765;28;45550;-75
2022/05/05 16:07:18;;;;;;;;;9.33;7.33;;;;;21.11;47.30;101186.47;5059597;28;45307;-74
2022/05/05 16:09:43;;;;;;;;;7.33;7.00;;;;;21.08;46.79;101183.81;5058812;28;46245;-75
2022/05/05 16:12:11;;;;;;;;;7.00;7.00;;;;;21.06;47.00;101191.78;5059197;28;45479;-75
2022/05/05 16:14:36;;;;;;;;;9.67;7.00;;;;;21.10;47.07;101179.38;5058933;28;45386;-75
2022/05/05 16:17:02;;;;;;;;;8.00;7.33;;;;;20.99;46.65;101189.13;5059481;28;46073;-75
2022/05/05 16:19:28;;;;;;;;;6.00;6.00;;;;;21.06;47.22;101185.59;5058883;28;45333;-75
2022/05/05 16:22:00;;;;;;;;;7.33;6.00;;;;;20.80;47.41;101164.41;5058887;28;45543;-75
2022/05/05 16:30:08;;;;;;;;;6.33;6.33;;;;;20.63;47.59;101159.13;5058400;28;45787;-75
2022/05/05 16:32:35;;;;;;;;;8.00;7.00;;;;;20.64;48.68;101188.34;5058618;28;45529;-75
2022/05/05 16:35:01;;;;;;;;;8.33;8.00;;;;;20.60;48.83;101198.97;5059073;28;45477;-75
2022/05/05 16:37:31;;;;;;;;;6.33;6.33;;;;;20.45;49.24;101206.03;5059329;28;45296;-75
2022/05/05 16:39:56;;;;;;;;;6.33;6.33;;;;;20.33;50.13;101200.69;5058852;28;45515;-75
2022/05/05 16:42:22;;;;;;;;;7.00;7.00;;;;;20.19;50.42;101210.41;5058574;28;45475;-75
2022/05/05 16:44:47;;;;;;;;;9.00;8.67;;;;;20.24;50.34;101209.53;5058982;28;45343;-75
2022/05/05 16:47:13;;;;;;;;;7.00;7.00;;;;;20.32;50.18;101211.34;5059211;28;45459;-75
2022/05/05 16:49:38;;;;;;;;;8.00;6.00;;;;;20.34;48.85;101213.09;5058240;28;46239;-75
2022/05/05 16:52:04;;;;;;;;;8.67;8.00;;;;;20.34;49.26;101209.56;5058581;28;45514;-75
2022/05/05 16:54:30;;;;;;;;;9.00;8.00;;;;;20.25;49.70;101219.28;5058836;28;45298;-75
2022/05/05 16:56:56;;;;;;;;;7.33;7.33;;;;;20.27;49.55;101211.31;5058930;28;45472;-75
2022/05/05 16:59:21;;;;;;;;;8.00;8.00;;;;;20.05;50.32;101215.72;5058405;28;45251;-75
2022/05/05 17:01:49;;;;;;;;;8.67;7.33;;;;;19.97;50.36;101212.16;5073686;28;45521;-75
2022/05/05 17:04:15;;;;;;;;;11.33;9.00;;;;;19.97;50.21;101207.72;5058928;28;45495;-75
2022/05/05 17:06:41;;;;;;;;;9.00;8.33;;;;;20.15;49.92;101209.53;5058722;28;45314;-76
2022/05/05 17:09:07;;;;;;;;;9.00;8.33;;;;;19.93;50.24;101221.00;5058371;28;45428;-76
2022/05/05 17:11:34;;;;;;;;;6.00;6.00;;;;;19.84;50.11;101214.78;5058063;28;45472;-75
2022/05/05 17:14:01;;;;;;;;;7.00;7.00;;;;;19.95;50.06;101214.81;5057093;28;45572;-74
2022/05/05 17:16:27;;;;;;;;;8.67;7.00;;;;;19.97;50.16;101213.03;5058372;28;45390;-75
2022/05/05 17:18:52;;;;;;;;;9.00;9.00;;;;;19.75;50.38;101193.53;5058851;28;46154;-77
2022/05/05 17:21:18;;;;;;;;;8.00;8.00;;;;;19.63;50.87;101199.66;5059773;28;45350;-75
2022/05/05 17:23:44;;;;;;;;;7.00;6.67;;;;;19.60;51.14;101226.19;5059479;28;45302;-74
2022/05/05 17:26:09;;;;;;;;;9.33;9.00;;;;;19.47;51.77;101225.22;5059788;28;45364;-76
2022/05/05 17:28:35;;;;;;;;;8.00;7.33;;;;;19.41;51.52;101227.84;5059084;28;45944;-73
2022/05/05 17:31:01;;;;;;;;;7.00;7.00;;;;;19.25;51.84;101216.28;5053447;28;45659;-73
2022/05/05 17:33:28;;;;;;;;;8.00;7.00;;;;;19.30;51.94;101231.31;5071808;28;45409;-73
2022/05/05 17:35:54;;;;;;;;;6.00;5.67;;;;;19.12;52.14;101216.22;5075957;28;45363;-74
2022/05/05 17:38:20;;;;;;;;;8.00;8.00;;;;;19.18;52.08;101233.06;5076593;27;45940;-73
2022/05/05 17:40:46;;;;;;;;;8.67;8.33;;;;;19.29;51.38;101235.75;5077127;27;45398;-73
2022/05/05 17:43:11;;;;;;;;;8.00;8.00;;;;;19.35;51.32;101230.47;5077225;27;45423;-74
2022/05/05 17:51:07;;;;;;;;;8.00;7.33;;;;;19.34;52.13;101235.75;5077514;28;45522;-75
2022/05/05 17:53:33;;;;;;;;;7.00;7.00;;;;;19.38;52.52;101238.44;5077888;27;45436;-75
2022/05/05 17:55:59;;;;;;;;;9.33;9.00;;;;;19.05;52.86;101215.31;5076777;28;45472;-76
2022/05/05 17:58:25;;;;;;;;;11.00;11.00;;;;;19.07;53.39;101224.16;5077500;28;45432;-76
2022/05/05 18:00:52;;;;;;;;;8.00;8.00;;;;;19.08;53.41;101239.19;5077876;27;45433;-72
2022/05/05 18:03:18;;;;;;;;;9.33;9.00;;;;;18.93;53.68;101234.66;5078105;28;45533;-74
2022/05/05 18:05:44;;;;;;;;;9.67;8.33;;;;;18.76;53.78;101247.75;5078991;27;45232;-73
2022/05/05 18:08:09;;;;;;;;;15.00;11.67;;;;;18.61;54.41;101251.16;5077546;28;45454;-73
2022/05/05 18:10:36;;;;;;;;;11.33;10.33;;;;;18.44;54.77;101242.19;5077481;28;45412;-77
2022/05/05 18:13:02;;;;;;;;;9.33;9.33;;;;;18.39;55.50;101250.09;5077940;27;45404;-73
2022/05/05 18:15:28;;;;;;;;;11.33;11.33;;;;;18.29;55.63;101253.53;5078035;28;45389;-73
2022/05/05 18:17:53;;;;;;;;;15.33;12.00;;;;;18.24;56.23;101252.56;5077526;27;45396;-78
2022/05/05 18:20:21;;;;;;;;;12.67;11.00;;;;;18.06;55.80;101251.53;5072350;27;45839;-75
2022/05/05 18:22:47;;;;;;;;;13.00;11.00;;;;;17.97;56.08;101254.06;5056747;28;45438;-74
2022/05/05 18:25:13;;;;;;;;;12.00;11.00;;;;;17.89;56.02;101256.63;5056766;28;45444;-76
2022/05/05 18:27:40;;;;;;;;;14.33;14.33;;;;;17.85;56.45;101265.41;5056890;28;46047;-76
2022/05/05 18:30:08;;;;;;;;;22.33;21.00;;;;;17.84;56.71;101262.72;5056780;28;45508;-76
2022/05/05 18:32:38;;;;;;;;;17.67;17.00;;;;;17.76;57.01;101270.53;5056941;28;45306;-75
2022/05/05 18:35:08;;;;;;;;;15.00;15.00;;;;;17.63;56.57;101271.28;5055255;28;46966;-73
2022/05/05 18:37:34;;;;;;;;;15.33;13.33;;;;;17.56;57.32;101267.63;5056520;28;46285;-72
2022/05/05 18:40:00;;;;;;;;;16.00;13.67;;;;;17.45;57.81;101266.63;5058873;28;45325;-71
2022/05/05 18:42:26;;;;;;;;;17.67;16.33;;;;;17.29;58.14;101268.19;5058654;28;45474;-72
2022/05/05 18:44:51;;;;;;;;;15.33;14.67;;;;;17.15;58.46;101264.44;5058282;28;45346;-72
2022/05/05 18:47:19;;;;;;;;;45.25;35.75;;;;;17.06;59.02;101273.13;5057785;28;45936;-72
2022/05/05 18:49:45;;;;;;;;;14.67;14.00;;;;;16.94;59.31;101276.44;5059379;28;45461;-71
2022/05/05 18:52:11;;;;;;;;;15.67;14.00;;;;;16.87;59.49;101279.84;5059799;28;45373;-72
2022/05/05 18:54:37;;;;;;;;;18.67;17.67;;;;;16.85;59.66;101282.50;5057905;28;46062;-74
2022/05/05 18:57:04;;;;;;;;;12.33;11.67;;;;;16.85;59.79;101285.13;5055899;28;45670;-71